sensor_id;sensor_type;location;lat;lon;timestamp;P1;durP1;ratioP1;P2;durP2;ratioP2
2289;SDS011;1153;47.986;7.898;2024-01-06T00:02:00;1.40;;;0.80;;
2289;SDS011;1153;47.986;7.898;2024-01-06T00:04:26;1.87;;;0.60;;
2289;SDS011;1153;47.986;7.898;2024-01-06T00:06:52;3.77;;;0.90;;
2289;SDS011;1153;47.986;7.898;2024-01-06T00:09:17;2.70;;;0.87;;
2289;SDS011;1153;47.986;7.898;2024-01-06T00:11:42;1.60;;;0.70;;
2289;SDS011;1153;47.986;7.898;2024-01-06T00:14:07;2.30;;;0.95;;
2289;SDS011;1153;47.986;7.898;2024-01-06T00:16:32;4.17;;;1.00;;
2289;SDS011;1153;47.986;7.898;2024-01-06T00:18:58;1.30;;;0.57;;
2289;SDS011;1153;47.986;7.898;2024-01-06T00:21:24;1.37;;;0.50;;
2289;SDS011;1153;47.986;7.898;2024-01-06T00:23:49;9.10;;;0.90;;
2289;SDS011;1153;47.986;7.898;2024-01-06T00:26:15;3.67;;;0.80;;
2289;SDS011;1153;47.986;7.898;2024-01-06T00:28:40;1.30;;;0.80;;
2289;SDS011;1153;47.986;7.898;2024-01-06T00:31:05;1.23;;;1.10;;
2289;SDS011;1153;47.986;7.898;2024-01-06T00:33:31;4.80;;;0.70;;
2289;SDS011;1153;47.986;7.898;2024-01-06T00:35:56;1.73;;;0.80;;
2289;SDS011;1153;47.986;7.898;2024-01-06T00:38:21;5.10;;;1.00;;
2289;SDS011;1153;47.986;7.898;2024-01-06T00:40:46;1.53;;;0.90;;
2289;SDS011;1153;47.986;7.898;2024-01-06T00:43:11;1.50;;;0.80;;
2289;SDS011;1153;47.986;7.898;2024-01-06T00:45:37;1.40;;;0.80;;
2289;SDS011;1153;47.986;7.898;2024-01-06T00:48:02;1.17;;;0.73;;
2289;SDS011;1153;47.986;7.898;2024-01-06T00:50:28;1.13;;;0.87;;
2289;SDS011;1153;47.986;7.898;2024-01-06T00:52:53;2.67;;;1.10;;
2289;SDS011;1153;47.986;7.898;2024-01-06T00:55:21;1.30;;;1.00;;
2289;SDS011;1153;47.986;7.898;2024-01-06T00:57:46;1.43;;;1.00;;
2289;SDS011;1153;47.986;7.898;2024-01-06T01:00:12;2.60;;;0.97;;
2289;SDS011;1153;47.986;7.898;2024-01-06T01:02:37;5.30;;;1.30;;
2289;SDS011;1153;47.986;7.898;2024-01-06T01:05:03;5.33;;;1.00;;
2289;SDS011;1153;47.986;7.898;2024-01-06T01:07:28;2.33;;;1.30;;
2289;SDS011;1153;47.986;7.898;2024-01-06T01:09:53;1.53;;;1.30;;
2289;SDS011;1153;47.986;7.898;2024-01-06T01:12:18;2.97;;;1.30;;
2289;SDS011;1153;47.986;7.898;2024-01-06T01:14:43;2.67;;;0.70;;
2289;SDS011;1153;47.986;7.898;2024-01-06T01:17:09;2.47;;;1.20;;
2289;SDS011;1153;47.986;7.898;2024-01-06T01:19:34;2.43;;;1.20;;
2289;SDS011;1153;47.986;7.898;2024-01-06T01:21:59;1.37;;;0.90;;
2289;SDS011;1153;47.986;7.898;2024-01-06T01:24:24;3.80;;;1.53;;
2289;SDS011;1153;47.986;7.898;2024-01-06T01:26:49;2.80;;;1.50;;
2289;SDS011;1153;47.986;7.898;2024-01-06T01:29:15;1.00;;;0.90;;
2289;SDS011;1153;47.986;7.898;2024-01-06T01:31:40;1.43;;;1.00;;
2289;SDS011;1153;47.986;7.898;2024-01-06T01:34:05;2.60;;;0.97;;
2289;SDS011;1153;47.986;7.898;2024-01-06T01:36:30;2.43;;;1.00;;
2289;SDS011;1153;47.986;7.898;2024-01-06T01:38:55;3.80;;;1.30;;
2289;SDS011;1153;47.986;7.898;2024-01-06T01:41:21;1.00;;;0.80;;
2289;SDS011;1153;47.986;7.898;2024-01-06T01:43:46;3.83;;;1.00;;
2289;SDS011;1153;47.986;7.898;2024-01-06T01:46:11;1.20;;;1.10;;
2289;SDS011;1153;47.986;7.898;2024-01-06T01:48:36;1.10;;;0.63;;
2289;SDS011;1153;47.986;7.898;2024-01-06T01:51:02;1.13;;;0.87;;
2289;SDS011;1153;47.986;7.898;2024-01-06T01:53:27;1.13;;;0.83;;
2289;SDS011;1153;47.986;7.898;2024-01-06T01:55:52;1.00;;;0.60;;
2289;SDS011;1153;47.986;7.898;2024-01-06T01:58:17;1.30;;;1.20;;
2289;SDS011;1153;47.986;7.898;2024-01-06T02:00:43;5.00;;;0.93;;
2289;SDS011;1153;47.986;7.898;2024-01-06T02:03:08;1.17;;;0.70;;
2289;SDS011;1153;47.986;7.898;2024-01-06T02:05:34;1.07;;;0.80;;
2289;SDS011;1153;47.986;7.898;2024-01-06T02:07:59;3.67;;;1.13;;
2289;SDS011;1153;47.986;7.898;2024-01-06T02:10:24;1.20;;;1.00;;
2289;SDS011;1153;47.986;7.898;2024-01-06T02:12:50;5.90;;;0.90;;
2289;SDS011;1153;47.986;7.898;2024-01-06T02:15:16;1.10;;;0.90;;
2289;SDS011;1153;47.986;7.898;2024-01-06T02:17:41;1.20;;;0.90;;
2289;SDS011;1153;47.986;7.898;2024-01-06T02:20:07;2.50;;;1.20;;
2289;SDS011;1153;47.986;7.898;2024-01-06T02:22:34;1.87;;;1.33;;
2289;SDS011;1153;47.986;7.898;2024-01-06T02:24:59;1.53;;;0.57;;
2289;SDS011;1153;47.986;7.898;2024-01-06T02:27:24;2.07;;;0.70;;
2289;SDS011;1153;47.986;7.898;2024-01-06T02:29:49;2.85;;;1.00;;
2289;SDS011;1153;47.986;7.898;2024-01-06T02:32:14;3.30;;;0.98;;
2289;SDS011;1153;47.986;7.898;2024-01-06T02:34:39;3.57;;;0.80;;
2289;SDS011;1153;47.986;7.898;2024-01-06T02:37:05;4.40;;;0.90;;
2289;SDS011;1153;47.986;7.898;2024-01-06T02:39:30;2.50;;;0.70;;
2289;SDS011;1153;47.986;7.898;2024-01-06T02:41:55;2.40;;;1.00;;
2289;SDS011;1153;47.986;7.898;2024-01-06T02:44:20;1.17;;;0.90;;
2289;SDS011;1153;47.986;7.898;2024-01-06T02:46:45;1.10;;;0.52;;
2289;SDS011;1153;47.986;7.898;2024-01-06T02:49:11;3.13;;;1.20;;
2289;SDS011;1153;47.986;7.898;2024-01-06T02:51:36;1.20;;;0.70;;
2289;SDS011;1153;47.986;7.898;2024-01-06T02:54:01;3.83;;;0.67;;
2289;SDS011;1153;47.986;7.898;2024-01-06T02:56:26;0.73;;;0.50;;
2289;SDS011;1153;47.986;7.898;2024-01-06T02:58:51;1.10;;;0.80;;
2289;SDS011;1153;47.986;7.898;2024-01-06T03:01:17;1.55;;;0.73;;
2289;SDS011;1153;47.986;7.898;2024-01-06T03:03:42;4.23;;;2.53;;
2289;SDS011;1153;47.986;7.898;2024-01-06T03:06:07;2.03;;;0.90;;
2289;SDS011;1153;47.986;7.898;2024-01-06T03:08:32;7.15;;;1.25;;
2289;SDS011;1153;47.986;7.898;2024-01-06T03:10:59;1.17;;;0.53;;
2289;SDS011;1153;47.986;7.898;2024-01-06T03:13:24;1.00;;;0.80;;
2289;SDS011;1153;47.986;7.898;2024-01-06T03:15:50;6.30;;;1.17;;
2289;SDS011;1153;47.986;7.898;2024-01-06T03:18:15;1.17;;;0.77;;
2289;SDS011;1153;47.986;7.898;2024-01-06T03:20:40;1.00;;;0.60;;
2289;SDS011;1153;47.986;7.898;2024-01-06T03:23:05;4.80;;;0.80;;
2289;SDS011;1153;47.986;7.898;2024-01-06T03:25:30;1.10;;;0.60;;
2289;SDS011;1153;47.986;7.898;2024-01-06T03:27:55;2.63;;;1.03;;
2289;SDS011;1153;47.986;7.898;2024-01-06T03:30:20;1.58;;;0.77;;
2289;SDS011;1153;47.986;7.898;2024-01-06T03:32:46;5.38;;;1.13;;
2289;SDS011;1153;47.986;7.898;2024-01-06T03:35:11;4.05;;;0.77;;
2289;SDS011;1153;47.986;7.898;2024-01-06T03:37:36;2.40;;;1.07;;
2289;SDS011;1153;47.986;7.898;2024-01-06T03:40:01;1.30;;;0.83;;
2289;SDS011;1153;47.986;7.898;2024-01-06T03:42:26;1.00;;;0.83;;
2289;SDS011;1153;47.986;7.898;2024-01-06T03:44:51;2.00;;;0.50;;
2289;SDS011;1153;47.986;7.898;2024-01-06T03:47:17;3.30;;;1.07;;
2289;SDS011;1153;47.986;7.898;2024-01-06T03:49:43;2.60;;;0.77;;
2289;SDS011;1153;47.986;7.898;2024-01-06T03:52:08;3.08;;;0.63;;
2289;SDS011;1153;47.986;7.898;2024-01-06T03:54:33;5.07;;;0.70;;
2289;SDS011;1153;47.986;7.898;2024-01-06T03:56:58;0.90;;;0.60;;
2289;SDS011;1153;47.986;7.898;2024-01-06T03:59:23;4.30;;;1.00;;
2289;SDS011;1153;47.986;7.898;2024-01-06T04:01:48;0.88;;;0.55;;
2289;SDS011;1153;47.986;7.898;2024-01-06T04:04:14;0.97;;;0.70;;
2289;SDS011;1153;47.986;7.898;2024-01-06T04:06:39;1.08;;;0.70;;
2289;SDS011;1153;47.986;7.898;2024-01-06T04:09:04;1.20;;;0.60;;
2289;SDS011;1153;47.986;7.898;2024-01-06T04:11:30;1.83;;;0.90;;
2289;SDS011;1153;47.986;7.898;2024-01-06T04:13:55;1.60;;;1.50;;
2289;SDS011;1153;47.986;7.898;2024-01-06T04:16:21;1.10;;;0.50;;
2289;SDS011;1153;47.986;7.898;2024-01-06T04:18:46;1.00;;;0.60;;
2289;SDS011;1153;47.986;7.898;2024-01-06T04:21:11;2.17;;;1.10;;
2289;SDS011;1153;47.986;7.898;2024-01-06T04:23:36;2.13;;;0.50;;
2289;SDS011;1153;47.986;7.898;2024-01-06T04:26:02;1.93;;;0.67;;
2289;SDS011;1153;47.986;7.898;2024-01-06T04:28:28;2.93;;;0.63;;
2289;SDS011;1153;47.986;7.898;2024-01-06T04:30:54;1.90;;;0.60;;
2289;SDS011;1153;47.986;7.898;2024-01-06T04:33:19;3.43;;;0.50;;
2289;SDS011;1153;47.986;7.898;2024-01-06T04:35:44;0.97;;;0.50;;
2289;SDS011;1153;47.986;7.898;2024-01-06T04:38:09;0.60;;;0.40;;
2289;SDS011;1153;47.986;7.898;2024-01-06T04:40:34;1.00;;;0.53;;
2289;SDS011;1153;47.986;7.898;2024-01-06T04:43:00;0.70;;;0.50;;
2289;SDS011;1153;47.986;7.898;2024-01-06T04:45:25;3.73;;;2.53;;
2289;SDS011;1153;47.986;7.898;2024-01-06T04:47:50;2.70;;;1.10;;
2289;SDS011;1153;47.986;7.898;2024-01-06T04:50:16;1.40;;;1.00;;
2289;SDS011;1153;47.986;7.898;2024-01-06T04:52:42;2.10;;;0.70;;
2289;SDS011;1153;47.986;7.898;2024-01-06T04:55:07;0.90;;;0.77;;
2289;SDS011;1153;47.986;7.898;2024-01-06T04:57:33;0.80;;;0.73;;
2289;SDS011;1153;47.986;7.898;2024-01-06T04:59:58;4.82;;;0.80;;
2289;SDS011;1153;47.986;7.898;2024-01-06T05:02:25;2.73;;;0.60;;
2289;SDS011;1153;47.986;7.898;2024-01-06T05:04:50;1.07;;;0.40;;
2289;SDS011;1153;47.986;7.898;2024-01-06T05:07:15;2.83;;;1.83;;
2289;SDS011;1153;47.986;7.898;2024-01-06T05:09:40;1.70;;;1.60;;
2289;SDS011;1153;47.986;7.898;2024-01-06T05:12:05;3.77;;;1.27;;
2289;SDS011;1153;47.986;7.898;2024-01-06T05:14:30;1.83;;;1.40;;
2289;SDS011;1153;47.986;7.898;2024-01-06T05:16:56;1.00;;;0.60;;
2289;SDS011;1153;47.986;7.898;2024-01-06T05:19:21;1.00;;;0.60;;
2289;SDS011;1153;47.986;7.898;2024-01-06T05:21:47;2.30;;;0.80;;
2289;SDS011;1153;47.986;7.898;2024-01-06T05:24:12;1.17;;;0.60;;
2289;SDS011;1153;47.986;7.898;2024-01-06T05:26:37;1.23;;;0.80;;
2289;SDS011;1153;47.986;7.898;2024-01-06T05:29:02;1.13;;;0.70;;
2289;SDS011;1153;47.986;7.898;2024-01-06T05:31:28;1.10;;;0.57;;
2289;SDS011;1153;47.986;7.898;2024-01-06T05:33:53;1.90;;;0.60;;
2289;SDS011;1153;47.986;7.898;2024-01-06T05:36:19;1.23;;;1.00;;
2289;SDS011;1153;47.986;7.898;2024-01-06T05:38:45;0.97;;;0.80;;
2289;SDS011;1153;47.986;7.898;2024-01-06T05:41:10;1.30;;;1.05;;
2289;SDS011;1153;47.986;7.898;2024-01-06T05:43:35;1.10;;;0.40;;
2289;SDS011;1153;47.986;7.898;2024-01-06T05:46:00;1.90;;;0.30;;
2289;SDS011;1153;47.986;7.898;2024-01-06T05:48:25;3.23;;;0.40;;
2289;SDS011;1153;47.986;7.898;2024-01-06T05:50:51;1.83;;;1.03;;
2289;SDS011;1153;47.986;7.898;2024-01-06T05:53:16;1.65;;;1.05;;
2289;SDS011;1153;47.986;7.898;2024-01-06T05:55:43;1.17;;;0.63;;
2289;SDS011;1153;47.986;7.898;2024-01-06T05:58:08;1.00;;;0.70;;
2289;SDS011;1153;47.986;7.898;2024-01-06T06:00:33;2.17;;;1.73;;
2289;SDS011;1153;47.986;7.898;2024-01-06T06:02:58;1.87;;;1.77;;
2289;SDS011;1153;47.986;7.898;2024-01-06T06:05:24;1.00;;;0.77;;
2289;SDS011;1153;47.986;7.898;2024-01-06T06:07:49;2.58;;;1.02;;
2289;SDS011;1153;47.986;7.898;2024-01-06T06:10:14;1.90;;;1.20;;
2289;SDS011;1153;47.986;7.898;2024-01-06T06:12:41;1.40;;;0.70;;
2289;SDS011;1153;47.986;7.898;2024-01-06T06:15:06;2.47;;;0.97;;
2289;SDS011;1153;47.986;7.898;2024-01-06T06:17:32;0.90;;;0.60;;
2289;SDS011;1153;47.986;7.898;2024-01-06T06:19:57;0.90;;;0.60;;
2289;SDS011;1153;47.986;7.898;2024-01-06T06:22:23;1.40;;;0.57;;
2289;SDS011;1153;47.986;7.898;2024-01-06T06:24:48;1.00;;;0.50;;
2289;SDS011;1153;47.986;7.898;2024-01-06T06:27:13;1.10;;;0.60;;
2289;SDS011;1153;47.986;7.898;2024-01-06T06:29:39;2.10;;;0.90;;
2289;SDS011;1153;47.986;7.898;2024-01-06T06:32:04;3.17;;;1.33;;
2289;SDS011;1153;47.986;7.898;2024-01-06T06:34:29;1.23;;;0.50;;
2289;SDS011;1153;47.986;7.898;2024-01-06T06:36:54;2.27;;;0.90;;
2289;SDS011;1153;47.986;7.898;2024-01-06T06:39:19;2.37;;;0.90;;
2289;SDS011;1153;47.986;7.898;2024-01-06T06:41:44;1.87;;;0.70;;
2289;SDS011;1153;47.986;7.898;2024-01-06T06:44:10;2.17;;;2.07;;
2289;SDS011;1153;47.986;7.898;2024-01-06T06:46:35;3.13;;;1.50;;
2289;SDS011;1153;47.986;7.898;2024-01-06T06:49:00;1.73;;;1.27;;
2289;SDS011;1153;47.986;7.898;2024-01-06T06:51:26;1.83;;;0.97;;
2289;SDS011;1153;47.986;7.898;2024-01-06T06:53:52;3.33;;;0.83;;
2289;SDS011;1153;47.986;7.898;2024-01-06T06:56:17;2.40;;;0.87;;
2289;SDS011;1153;47.986;7.898;2024-01-06T06:58:42;1.67;;;1.50;;
2289;SDS011;1153;47.986;7.898;2024-01-06T07:01:07;2.17;;;1.20;;
2289;SDS011;1153;47.986;7.898;2024-01-06T07:03:33;1.00;;;0.63;;
2289;SDS011;1153;47.986;7.898;2024-01-06T07:05:58;1.17;;;0.70;;
2289;SDS011;1153;47.986;7.898;2024-01-06T07:08:23;3.23;;;0.80;;
2289;SDS011;1153;47.986;7.898;2024-01-06T07:10:48;1.50;;;0.60;;
2289;SDS011;1153;47.986;7.898;2024-01-06T07:13:13;6.10;;;0.57;;
2289;SDS011;1153;47.986;7.898;2024-01-06T07:15:38;3.83;;;0.60;;
2289;SDS011;1153;47.986;7.898;2024-01-06T07:18:04;1.00;;;0.50;;
2289;SDS011;1153;47.986;7.898;2024-01-06T07:20:29;1.37;;;0.57;;
2289;SDS011;1153;47.986;7.898;2024-01-06T07:22:54;1.93;;;0.50;;
2289;SDS011;1153;47.986;7.898;2024-01-06T07:25:19;2.37;;;1.30;;
2289;SDS011;1153;47.986;7.898;2024-01-06T07:27:45;1.20;;;1.10;;
2289;SDS011;1153;47.986;7.898;2024-01-06T07:30:10;0.90;;;0.80;;
2289;SDS011;1153;47.986;7.898;2024-01-06T07:32:35;1.20;;;0.97;;
2289;SDS011;1153;47.986;7.898;2024-01-06T07:35:00;5.33;;;2.60;;
2289;SDS011;1153;47.986;7.898;2024-01-06T07:37:27;3.50;;;0.60;;
2289;SDS011;1153;47.986;7.898;2024-01-06T07:39:52;1.13;;;0.52;;
2289;SDS011;1153;47.986;7.898;2024-01-06T07:42:17;3.22;;;0.60;;
2289;SDS011;1153;47.986;7.898;2024-01-06T07:44:43;1.40;;;0.67;;
2289;SDS011;1153;47.986;7.898;2024-01-06T07:47:09;3.53;;;1.60;;
2289;SDS011;1153;47.986;7.898;2024-01-06T07:49:34;1.97;;;1.57;;
2289;SDS011;1153;47.986;7.898;2024-01-06T07:51:59;3.20;;;1.57;;
2289;SDS011;1153;47.986;7.898;2024-01-06T07:54:25;6.17;;;2.93;;
2289;SDS011;1153;47.986;7.898;2024-01-06T07:56:50;2.10;;;1.30;;
2289;SDS011;1153;47.986;7.898;2024-01-06T07:59:15;1.87;;;0.70;;
2289;SDS011;1153;47.986;7.898;2024-01-06T08:01:40;1.10;;;1.00;;
2289;SDS011;1153;47.986;7.898;2024-01-06T08:04:07;1.10;;;0.70;;
2289;SDS011;1153;47.986;7.898;2024-01-06T08:06:33;1.80;;;1.00;;
2289;SDS011;1153;47.986;7.898;2024-01-06T08:08:58;2.57;;;1.30;;
2289;SDS011;1153;47.986;7.898;2024-01-06T08:11:24;1.20;;;0.80;;
2289;SDS011;1153;47.986;7.898;2024-01-06T08:13:49;1.10;;;0.90;;
2289;SDS011;1153;47.986;7.898;2024-01-06T08:16:14;1.00;;;0.70;;
2289;SDS011;1153;47.986;7.898;2024-01-06T08:18:39;8.33;;;1.10;;
2289;SDS011;1153;47.986;7.898;2024-01-06T08:21:04;5.87;;;1.30;;
2289;SDS011;1153;47.986;7.898;2024-01-06T08:23:29;1.33;;;0.70;;
2289;SDS011;1153;47.986;7.898;2024-01-06T08:25:55;1.03;;;0.93;;
2289;SDS011;1153;47.986;7.898;2024-01-06T08:28:20;1.10;;;0.60;;
2289;SDS011;1153;47.986;7.898;2024-01-06T08:30:48;5.70;;;0.60;;
2289;SDS011;1153;47.986;7.898;2024-01-06T08:33:13;5.35;;;2.55;;
2289;SDS011;1153;47.986;7.898;2024-01-06T08:35:38;2.93;;;2.67;;
2289;SDS011;1153;47.986;7.898;2024-01-06T08:38:05;4.30;;;2.70;;
2289;SDS011;1153;47.986;7.898;2024-01-06T08:40:31;11.47;;;7.07;;
2289;SDS011;1153;47.986;7.898;2024-01-06T08:42:56;4.00;;;3.70;;
2289;SDS011;1153;47.986;7.898;2024-01-06T08:45:21;3.00;;;2.80;;
2289;SDS011;1153;47.986;7.898;2024-01-06T08:47:47;3.90;;;2.20;;
2289;SDS011;1153;47.986;7.898;2024-01-06T08:50:12;1.87;;;1.17;;
2289;SDS011;1153;47.986;7.898;2024-01-06T08:52:38;1.63;;;1.53;;
2289;SDS011;1153;47.986;7.898;2024-01-06T08:55:04;1.67;;;1.53;;
2289;SDS011;1153;47.986;7.898;2024-01-06T08:57:30;5.10;;;1.90;;
2289;SDS011;1153;47.986;7.898;2024-01-06T08:59:55;2.17;;;2.07;;
2289;SDS011;1153;47.986;7.898;2024-01-06T09:02:20;5.50;;;1.90;;
2289;SDS011;1153;47.986;7.898;2024-01-06T09:04:46;6.90;;;1.30;;
2289;SDS011;1153;47.986;7.898;2024-01-06T09:07:11;2.70;;;1.13;;
2289;SDS011;1153;47.986;7.898;2024-01-06T09:09:36;3.17;;;2.77;;
2289;SDS011;1153;47.986;7.898;2024-01-06T09:12:02;4.83;;;3.00;;
2289;SDS011;1153;47.986;7.898;2024-01-06T09:14:27;4.87;;;2.40;;
2289;SDS011;1153;47.986;7.898;2024-01-06T09:16:52;2.77;;;2.20;;
2289;SDS011;1153;47.986;7.898;2024-01-06T09:19:17;3.87;;;1.70;;
2289;SDS011;1153;47.986;7.898;2024-01-06T09:21:43;4.97;;;2.70;;
2289;SDS011;1153;47.986;7.898;2024-01-06T09:24:08;1.92;;;0.90;;
2289;SDS011;1153;47.986;7.898;2024-01-06T09:26:33;11.33;;;1.03;;
2289;SDS011;1153;47.986;7.898;2024-01-06T09:28:59;4.60;;;1.20;;
2289;SDS011;1153;47.986;7.898;2024-01-06T09:31:24;0.80;;;0.60;;
2289;SDS011;1153;47.986;7.898;2024-01-06T09:33:50;1.33;;;0.57;;
2289;SDS011;1153;47.986;7.898;2024-01-06T09:36:15;6.23;;;0.50;;
2289;SDS011;1153;47.986;7.898;2024-01-06T09:38:40;1.20;;;0.80;;
2289;SDS011;1153;47.986;7.898;2024-01-06T09:41:05;1.50;;;0.70;;
2289;SDS011;1153;47.986;7.898;2024-01-06T09:43:31;1.60;;;0.40;;
2289;SDS011;1153;47.986;7.898;2024-01-06T09:45:58;1.27;;;0.43;;
2289;SDS011;1153;47.986;7.898;2024-01-06T09:48:28;0.77;;;0.40;;
2289;SDS011;1153;47.986;7.898;2024-01-06T09:50:54;5.80;;;0.40;;
2289;SDS011;1153;47.986;7.898;2024-01-06T09:53:20;0.60;;;0.40;;
2289;SDS011;1153;47.986;7.898;2024-01-06T09:55:47;1.10;;;0.40;;
2289;SDS011;1153;47.986;7.898;2024-01-06T09:58:17;0.70;;;0.37;;
2289;SDS011;1153;47.986;7.898;2024-01-06T10:00:42;1.47;;;0.40;;
2289;SDS011;1153;47.986;7.898;2024-01-06T10:03:07;0.80;;;0.50;;
2289;SDS011;1153;47.986;7.898;2024-01-06T10:05:33;1.83;;;0.40;;
2289;SDS011;1153;47.986;7.898;2024-01-06T10:07:58;1.27;;;0.40;;
2289;SDS011;1153;47.986;7.898;2024-01-06T10:10:24;2.40;;;0.30;;
2289;SDS011;1153;47.986;7.898;2024-01-06T10:12:49;4.47;;;1.13;;
2289;SDS011;1153;47.986;7.898;2024-01-06T10:15:17;2.20;;;0.40;;
2289;SDS011;1153;47.986;7.898;2024-01-06T10:17:43;1.10;;;0.50;;
2289;SDS011;1153;47.986;7.898;2024-01-06T10:20:09;0.70;;;0.40;;
2289;SDS011;1153;47.986;7.898;2024-01-06T10:22:35;1.73;;;0.40;;
2289;SDS011;1153;47.986;7.898;2024-01-06T10:25:00;2.70;;;0.40;;
2289;SDS011;1153;47.986;7.898;2024-01-06T10:27:25;1.20;;;0.40;;
2289;SDS011;1153;47.986;7.898;2024-01-06T10:29:50;0.70;;;0.50;;
2289;SDS011;1153;47.986;7.898;2024-01-06T10:32:16;0.70;;;0.40;;
2289;SDS011;1153;47.986;7.898;2024-01-06T10:34:42;4.77;;;0.67;;
2289;SDS011;1153;47.986;7.898;2024-01-06T10:37:07;0.83;;;0.40;;
2289;SDS011;1153;47.986;7.898;2024-01-06T10:39:32;1.80;;;0.40;;
2289;SDS011;1153;47.986;7.898;2024-01-06T10:41:58;0.70;;;0.50;;
2289;SDS011;1153;47.986;7.898;2024-01-06T10:44:24;2.80;;;0.50;;
2289;SDS011;1153;47.986;7.898;2024-01-06T10:46:49;0.70;;;0.50;;
2289;SDS011;1153;47.986;7.898;2024-01-06T10:49:15;0.80;;;0.40;;
2289;SDS011;1153;47.986;7.898;2024-01-06T10:51:42;0.60;;;0.40;;
2289;SDS011;1153;47.986;7.898;2024-01-06T10:54:08;1.77;;;0.40;;
2289;SDS011;1153;47.986;7.898;2024-01-06T10:56:37;0.70;;;0.40;;
2289;SDS011;1153;47.986;7.898;2024-01-06T10:59:04;0.80;;;0.40;;
2289;SDS011;1153;47.986;7.898;2024-01-06T11:01:29;0.70;;;0.40;;
2289;SDS011;1153;47.986;7.898;2024-01-06T11:03:55;0.67;;;0.30;;
2289;SDS011;1153;47.986;7.898;2024-01-06T11:06:20;1.90;;;0.40;;
2289;SDS011;1153;47.986;7.898;2024-01-06T11:08:51;0.50;;;0.30;;
2289;SDS011;1153;47.986;7.898;2024-01-06T11:11:18;0.70;;;0.30;;
2289;SDS011;1153;47.986;7.898;2024-01-06T11:13:43;0.67;;;0.40;;
2289;SDS011;1153;47.986;7.898;2024-01-06T11:16:10;0.60;;;0.30;;
2289;SDS011;1153;47.986;7.898;2024-01-06T11:18:36;0.80;;;0.80;;
2289;SDS011;1153;47.986;7.898;2024-01-06T11:23:42;0.50;;;0.30;;
2289;SDS011;1153;47.986;7.898;2024-01-06T11:26:07;0.80;;;0.40;;
2289;SDS011;1153;47.986;7.898;2024-01-06T11:28:47;0.63;;;0.33;;
2289;SDS011;1153;47.986;7.898;2024-01-06T11:31:13;0.63;;;0.30;;
2289;SDS011;1153;47.986;7.898;2024-01-06T11:33:44;0.80;;;0.40;;
2289;SDS011;1153;47.986;7.898;2024-01-06T11:36:12;0.80;;;0.40;;
2289;SDS011;1153;47.986;7.898;2024-01-06T11:38:39;0.60;;;0.43;;
2289;SDS011;1153;47.986;7.898;2024-01-06T11:41:07;0.77;;;0.47;;
2289;SDS011;1153;47.986;7.898;2024-01-06T11:43:34;0.57;;;0.33;;
2289;SDS011;1153;47.986;7.898;2024-01-06T11:46:00;0.70;;;0.40;;
2289;SDS011;1153;47.986;7.898;2024-01-06T11:48:27;0.90;;;0.50;;
2289;SDS011;1153;47.986;7.898;2024-01-06T11:50:54;1.47;;;0.40;;
2289;SDS011;1153;47.986;7.898;2024-01-06T11:53:19;2.73;;;0.50;;
2289;SDS011;1153;47.986;7.898;2024-01-06T11:55:45;5.57;;;0.70;;
2289;SDS011;1153;47.986;7.898;2024-01-06T11:58:10;1.10;;;0.50;;
2289;SDS011;1153;47.986;7.898;2024-01-06T12:00:35;1.53;;;0.50;;
2289;SDS011;1153;47.986;7.898;2024-01-06T12:03:04;0.73;;;0.50;;
2289;SDS011;1153;47.986;7.898;2024-01-06T12:05:30;1.00;;;0.50;;
2289;SDS011;1153;47.986;7.898;2024-01-06T12:08:04;0.80;;;0.47;;
2289;SDS011;1153;47.986;7.898;2024-01-06T12:10:32;0.83;;;0.50;;
2289;SDS011;1153;47.986;7.898;2024-01-06T12:12:59;0.90;;;0.60;;
2289;SDS011;1153;47.986;7.898;2024-01-06T12:15:25;0.90;;;0.70;;
2289;SDS011;1153;47.986;7.898;2024-01-06T12:17:50;1.20;;;0.60;;
2289;SDS011;1153;47.986;7.898;2024-01-06T12:20:15;2.37;;;0.50;;
2289;SDS011;1153;47.986;7.898;2024-01-06T12:22:40;4.53;;;0.60;;
2289;SDS011;1153;47.986;7.898;2024-01-06T12:25:06;1.77;;;0.43;;
2289;SDS011;1153;47.986;7.898;2024-01-06T12:27:32;0.80;;;0.50;;
2289;SDS011;1153;47.986;7.898;2024-01-06T12:29:57;1.83;;;0.50;;
2289;SDS011;1153;47.986;7.898;2024-01-06T12:32:22;0.70;;;0.30;;
2289;SDS011;1153;47.986;7.898;2024-01-06T12:34:48;1.30;;;0.50;;
2289;SDS011;1153;47.986;7.898;2024-01-06T12:37:13;0.80;;;0.40;;
2289;SDS011;1153;47.986;7.898;2024-01-06T12:39:38;1.10;;;0.60;;
2289;SDS011;1153;47.986;7.898;2024-01-06T12:42:05;0.70;;;0.40;;
2289;SDS011;1153;47.986;7.898;2024-01-06T12:44:31;3.13;;;0.57;;
2289;SDS011;1153;47.986;7.898;2024-01-06T12:46:58;0.80;;;0.50;;
2289;SDS011;1153;47.986;7.898;2024-01-06T12:49:23;1.83;;;0.50;;
2289;SDS011;1153;47.986;7.898;2024-01-06T12:51:48;0.80;;;0.40;;
2289;SDS011;1153;47.986;7.898;2024-01-06T12:54:15;6.00;;;0.73;;
2289;SDS011;1153;47.986;7.898;2024-01-06T12:56:40;2.20;;;0.80;;
2289;SDS011;1153;47.986;7.898;2024-01-06T12:59:05;1.00;;;0.57;;
2289;SDS011;1153;47.986;7.898;2024-01-06T13:01:31;0.73;;;0.47;;
2289;SDS011;1153;47.986;7.898;2024-01-06T13:03:56;6.70;;;0.73;;
2289;SDS011;1153;47.986;7.898;2024-01-06T13:06:24;2.07;;;0.60;;
2289;SDS011;1153;47.986;7.898;2024-01-06T13:08:50;2.00;;;0.50;;
2289;SDS011;1153;47.986;7.898;2024-01-06T13:11:16;1.67;;;1.10;;
2289;SDS011;1153;47.986;7.898;2024-01-06T13:13:41;1.00;;;0.80;;
2289;SDS011;1153;47.986;7.898;2024-01-06T13:16:06;0.90;;;0.60;;
2289;SDS011;1153;47.986;7.898;2024-01-06T13:18:31;0.70;;;0.50;;
2289;SDS011;1153;47.986;7.898;2024-01-06T13:20:56;1.17;;;1.00;;
2289;SDS011;1153;47.986;7.898;2024-01-06T13:23:22;2.43;;;0.60;;
2289;SDS011;1153;47.986;7.898;2024-01-06T13:25:47;1.27;;;0.50;;
2289;SDS011;1153;47.986;7.898;2024-01-06T13:28:12;1.87;;;0.70;;
2289;SDS011;1153;47.986;7.898;2024-01-06T13:30:37;0.90;;;0.50;;
2289;SDS011;1153;47.986;7.898;2024-01-06T13:33:04;1.60;;;0.80;;
2289;SDS011;1153;47.986;7.898;2024-01-06T13:35:29;1.00;;;0.70;;
2289;SDS011;1153;47.986;7.898;2024-01-06T13:37:56;1.17;;;0.60;;
2289;SDS011;1153;47.986;7.898;2024-01-06T13:40:21;4.70;;;1.17;;
2289;SDS011;1153;47.986;7.898;2024-01-06T13:42:50;1.50;;;0.50;;
2289;SDS011;1153;47.986;7.898;2024-01-06T13:45:19;2.03;;;1.17;;
2289;SDS011;1153;47.986;7.898;2024-01-06T13:47:44;4.83;;;0.90;;
2289;SDS011;1153;47.986;7.898;2024-01-06T13:50:13;1.10;;;0.80;;
2289;SDS011;1153;47.986;7.898;2024-01-06T13:52:38;3.63;;;0.90;;
2289;SDS011;1153;47.986;7.898;2024-01-06T13:55:04;1.20;;;1.07;;
2289;SDS011;1153;47.986;7.898;2024-01-06T13:57:29;5.20;;;0.80;;
2289;SDS011;1153;47.986;7.898;2024-01-06T13:59:54;0.80;;;0.60;;
2289;SDS011;1153;47.986;7.898;2024-01-06T14:02:19;1.10;;;0.97;;
2289;SDS011;1153;47.986;7.898;2024-01-06T14:04:44;1.97;;;0.70;;
2289;SDS011;1153;47.986;7.898;2024-01-06T14:07:10;1.00;;;0.60;;
2289;SDS011;1153;47.986;7.898;2024-01-06T14:09:35;1.20;;;0.80;;
2289;SDS011;1153;47.986;7.898;2024-01-06T14:12:00;1.57;;;0.53;;
2289;SDS011;1153;47.986;7.898;2024-01-06T14:14:25;4.40;;;0.70;;
2289;SDS011;1153;47.986;7.898;2024-01-06T14:16:51;1.00;;;0.60;;
2289;SDS011;1153;47.986;7.898;2024-01-06T14:19:16;1.40;;;0.90;;
2289;SDS011;1153;47.986;7.898;2024-01-06T14:21:41;1.90;;;0.77;;
2289;SDS011;1153;47.986;7.898;2024-01-06T14:24:07;0.93;;;0.70;;
2289;SDS011;1153;47.986;7.898;2024-01-06T14:26:32;1.00;;;0.60;;
2289;SDS011;1153;47.986;7.898;2024-01-06T14:28:58;0.80;;;0.50;;
2289;SDS011;1153;47.986;7.898;2024-01-06T14:31:23;0.90;;;0.50;;
2289;SDS011;1153;47.986;7.898;2024-01-06T14:33:48;1.10;;;0.77;;
2289;SDS011;1153;47.986;7.898;2024-01-06T14:36:14;1.20;;;0.70;;
2289;SDS011;1153;47.986;7.898;2024-01-06T14:38:39;0.88;;;0.60;;
2289;SDS011;1153;47.986;7.898;2024-01-06T14:41:04;1.37;;;0.80;;
2289;SDS011;1153;47.986;7.898;2024-01-06T14:43:30;2.40;;;0.60;;
2289;SDS011;1153;47.986;7.898;2024-01-06T14:45:55;2.83;;;0.70;;
2289;SDS011;1153;47.986;7.898;2024-01-06T14:48:21;0.97;;;0.60;;
2289;SDS011;1153;47.986;7.898;2024-01-06T14:50:46;0.70;;;0.43;;
2289;SDS011;1153;47.986;7.898;2024-01-06T14:53:11;0.80;;;0.50;;
2289;SDS011;1153;47.986;7.898;2024-01-06T14:55:36;0.73;;;0.40;;
2289;SDS011;1153;47.986;7.898;2024-01-06T14:58:02;1.10;;;0.77;;
2289;SDS011;1153;47.986;7.898;2024-01-06T15:00:28;2.13;;;0.70;;
2289;SDS011;1153;47.986;7.898;2024-01-06T15:02:53;1.00;;;0.60;;
2289;SDS011;1153;47.986;7.898;2024-01-06T15:05:18;1.17;;;0.65;;
2289;SDS011;1153;47.986;7.898;2024-01-06T15:07:43;1.20;;;0.80;;